createdAt,value
2018-04-14T08:56:23.221Z,37.71
2018-04-14T08:57:28.007Z,37.44
2018-04-14T08:58:32.487Z,37.31
2018-04-14T08:59:36.512Z,36.95
2018-04-14T09:00:40.055Z,36.87
2018-04-14T09:01:43.951Z,36.79
2018-04-14T09:02:47.522Z,36.76
2018-04-14T09:03:51.893Z,36.72
2018-04-14T09:04:56.312Z,36.65
2018-04-14T09:06:00.273Z,36.72
2018-04-14T09:07:05.123Z,36.65
2018-04-14T09:08:08.949Z,36.71
2018-04-14T09:09:13.004Z,36.65
2018-04-14T09:10:17.794Z,36.72
2018-04-14T09:11:21.412Z,36.76
2018-04-14T09:12:24.930Z,36.92
2018-04-14T09:13:28.485Z,36.83
2018-04-14T09:14:32.387Z,37.01
2018-04-14T09:15:35.945Z,37.28
2018-04-14T09:16:39.495Z,37.11
2018-04-14T09:17:43.048Z,37.26
2018-04-14T09:18:46.636Z,37.15
2018-04-14T09:19:50.191Z,37.21
2018-04-14T09:20:54.257Z,37.10
2018-04-14T09:21:57.761Z,36.93
2018-04-14T09:23:01.353Z,36.94
2018-04-14T09:24:04.849Z,36.93
2018-04-14T09:25:08.386Z,36.81
2018-04-14T09:26:11.964Z,36.97
2018-04-14T09:27:15.863Z,36.97
2018-04-14T09:28:19.986Z,36.96
2018-04-14T09:29:23.632Z,36.89
2018-04-14T09:30:27.153Z,37.10
2018-04-14T09:31:30.777Z,36.99
2018-04-14T09:32:34.345Z,37.03
2018-04-14T09:33:38.247Z,36.91
2018-04-14T09:34:41.862Z,37.00
2018-04-14T09:35:45.480Z,36.96
2018-04-14T09:36:49.033Z,36.97
2018-04-14T09:37:52.561Z,36.91
2018-04-14T09:38:56.077Z,37.40
2018-04-14T09:39:59.993Z,36.88
2018-04-14T09:41:03.542Z,37.02
2018-04-14T09:42:07.157Z,37.04
2018-04-14T09:43:10.657Z,37.09
2018-04-14T09:44:14.169Z,37.07
2018-04-14T09:45:17.896Z,37.09
2018-04-14T09:46:21.970Z,37.13
2018-04-14T09:47:25.905Z,37.03
2018-04-14T09:48:29.925Z,37.34
2018-04-14T09:49:33.413Z,37.04
2018-04-14T09:50:37.030Z,37.20
2018-04-14T09:51:40.984Z,37.17
2018-04-14T09:52:44.584Z,37.13
2018-04-14T09:53:48.626Z,37.10
2018-04-14T09:54:52.380Z,37.28
2018-04-14T09:55:55.902Z,37.15
2018-04-14T09:56:59.388Z,37.07
2018-04-14T09:58:02.923Z,36.97
2018-04-14T09:59:06.771Z,36.99
2018-04-14T10:00:14.653Z,36.94
2018-04-14T10:01:22.228Z,36.92
2018-04-14T10:02:26.717Z,36.91
2018-04-14T10:03:30.408Z,36.94
2018-04-14T10:04:35.137Z,37.05
2018-04-14T10:05:39.930Z,37.06
2018-04-14T10:06:44.637Z,36.91
2018-04-14T10:07:49.335Z,37.12
2018-04-14T10:08:53.759Z,37.03
2018-04-14T10:09:57.330Z,37.20
2018-04-14T10:11:00.918Z,37.01
2018-04-14T10:12:04.483Z,37.14
2018-04-14T10:13:08.958Z,37.11
2018-04-14T10:14:13.776Z,37.12
2018-04-14T10:15:19.509Z,37.07
2018-04-14T10:16:25.077Z,36.92
2018-04-14T10:17:30.247Z,37.02
2018-04-14T10:18:34.677Z,37.05
2018-04-14T10:19:38.692Z,36.89
2018-04-14T10:20:43.103Z,37.13
2018-04-14T10:21:46.646Z,36.98
2018-04-14T10:22:50.262Z,36.90
2018-04-14T10:23:53.852Z,36.99
2018-04-14T10:24:57.722Z,37.09
2018-04-14T10:26:01.570Z,37.05
